Time;durP1;ratioP1;P1;durP2;ratioP2;P2;SDS_P1;SDS_P2;PMS_P1;PMS_P2;Temp;Humidity;BMP_temperature;BMP_pressure;BME280_temperature;BME280_humidity;BME280_pressure;Samples;Min_cycle;Max_cycle;Signal;HPM_P1;HPM_P2
2021/03/28 00:01:05;;;;;;;15.27;4.53;;;;;;;10.82;45.08;102576.38;4928093;28;114238;-71
2021/03/28 00:03:54;;;;;;;13.98;4.53;;;;;;;10.83;44.95;102576.38;4919896;28;113186;-71
2021/03/28 00:06:31;;;;;;;14.38;4.70;;;;;;;10.86;45.16;102578.06;4937078;28;124053;-71
2021/03/28 00:09:25;;;;;;;15.55;4.53;;;;;;;10.88;45.06;102573.63;4941540;28;124021;-71
2021/03/28 00:12:00;;;;;;;15.45;4.45;;;;;;;10.90;45.21;102572.66;4938599;28;113430;-71
2021/03/28 00:14:33;;;;;;;20.52;4.85;;;;;;;10.89;45.24;102567.44;4919343;28;112924;-71
2021/03/28 00:16:59;;;;;;;16.13;4.47;;;;;;;10.90;45.27;102563.84;4925889;28;124100;-71
2021/03/28 00:19:32;;;;;;;13.30;4.80;;;;;;;10.92;45.24;102562.03;4943648;28;124450;-70
2021/03/28 00:22:04;;;;;;;13.90;4.18;;;;;;;10.94;45.03;102565.53;4898915;28;114023;-71
2021/03/28 00:24:39;;;;;;;13.80;4.20;;;;;;;10.93;45.32;102553.19;4940315;28;113787;-71
2021/03/28 00:27:16;;;;;;;13.13;4.10;;;;;;;10.94;45.24;102560.25;4915490;28;123931;-71
2021/03/28 00:29:48;;;;;;;16.83;4.53;;;;;;;10.94;45.60;102554.94;4915766;28;124111;-71
2021/03/28 00:32:19;;;;;;;11.13;3.88;;;;;;;10.95;45.30;102567.31;4939064;28;114733;-71
2021/03/28 00:34:51;;;;;;;15.25;4.15;;;;;;;10.95;45.37;102562.00;4944279;28;114288;-71
2021/03/28 00:37:27;;;;;;;15.00;3.80;;;;;;;10.94;45.51;102570.84;4942437;28;125371;-71
2021/03/28 00:39:53;;;;;;;;;;;;;;;10.94;45.04;102560.25;4917448;28;123849;-71
2021/03/28 00:42:31;;;;;;;14.43;4.50;;;;;;;10.97;45.17;102554.03;4943817;28;115757;-69
2021/03/28 00:44:58;;;;;;;12.23;4.03;;;;;;;10.96;45.46;102555.78;4939555;28;114929;-71
2021/03/28 00:47:30;;;;;;;18.30;4.93;;;;;;;10.95;45.77;102556.69;4940281;28;124743;-71
2021/03/28 00:50:02;;;;;;;11.25;3.92;;;;;;;10.95;45.42;102543.44;4942462;28;124256;-71
2021/03/28 00:52:35;;;;;;;12.80;3.92;;;;;;;10.95;45.77;102546.09;4941953;28;114418;-71
2021/03/28 00:55:16;;;;;;;15.00;4.55;;;;;;;10.90;45.45;102542.66;4919650;28;113791;-70
2021/03/28 00:58:11;;;;;;;16.35;4.28;;;;;;;10.89;45.69;102541.78;4922610;28;123455;-71
2021/03/28 01:01:04;;;;;;;17.33;4.15;;;;;;;10.89;45.87;102535.63;4919937;28;124232;-71
2021/03/28 01:04:10;;;;;;;12.10;4.15;;;;;;;10.86;45.75;102541.81;4938407;28;114084;-71
2021/03/28 01:06:44;;;;;;;12.30;3.63;;;;;;;10.83;45.64;102541.00;4942971;28;114705;-71
2021/03/28 01:09:16;;;;;;;14.68;3.83;;;;;;;10.81;46.13;102533.13;4941288;28;124333;-71
2021/03/28 01:12:02;;;;;;;16.35;3.75;;;;;;;10.78;46.24;102527.00;4924397;28;123582;-71
2021/03/28 01:14:48;;;;;;;16.08;3.28;;;;;;;10.75;46.12;102537.63;4937028;28;114359;-70
2021/03/28 01:17:25;;;;;;;15.93;3.53;;;;;;;10.73;46.39;102528.84;4924135;28;113243;-71
2021/03/28 01:20:13;;;;;;;13.43;3.38;;;;;;;10.69;46.41;102528.88;4925670;28;123315;-71
2021/03/28 01:23:08;;;;;;;12.98;3.45;;;;;;;10.66;46.33;102539.56;4941615;28;124769;-71
2021/03/28 01:25:43;;;;;;;10.55;3.22;;;;;;;10.64;46.16;102535.19;4903095;28;114845;-71
2021/03/28 01:28:15;;;;;;;15.70;3.80;;;;;;;10.62;46.47;102532.56;4943335;28;114580;-71
2021/03/28 01:30:46;;;;;;;15.48;3.60;;;;;;;10.61;46.93;102533.47;4942960;28;124701;-71
2021/03/28 01:33:20;;;;;;;15.65;3.80;;;;;;;10.59;46.71;102532.63;4938307;28;124471;-71
2021/03/28 01:36:06;;;;;;;11.45;3.63;;;;;;;10.58;46.93;102528.22;4947044;28;114510;-71
2021/03/28 01:38:33;;;;;;;;;;;;;;;10.56;46.50;102521.22;4946133;28;114227;-70
2021/03/28 01:41:05;;;;;;;18.75;3.50;;;;;;;10.55;46.57;102520.34;4946374;28;124039;-71
2021/03/28 01:43:43;;;;;;;9.75;3.10;;;;;;;10.52;46.70;102525.69;4923618;28;123313;-71
2021/03/28 01:46:18;;;;;;;15.48;3.28;;;;;;;10.50;46.81;102527.50;4922943;28;113445;-71
2021/03/28 01:48:53;;;;;;;12.18;3.33;;;;;;;10.46;46.83;102515.19;4944035;28;113619;-71
2021/03/28 01:51:35;;;;;;;10.10;3.40;;;;;;;10.43;47.15;102520.53;4938822;28;124443;-71
2021/03/28 01:54:14;;;;;;;16.05;3.70;;;;;;;10.39;47.31;102513.56;4940660;28;123881;-71
2021/03/28 01:57:06;;;;;;;16.05;3.38;;;;;;;10.37;47.29;102520.66;4922215;28;113634;-71
2021/03/28 02:00:10;;;;;;;15.48;3.70;;;;;;;10.36;47.20;102524.19;4897593;28;114516;-69
2021/03/28 02:03:00;;;;;;;13.75;3.65;;;;;;;10.32;47.33;102518.06;4940524;28;124441;-69
2021/03/28 02:05:33;;;;;;;13.98;3.92;;;;;;;10.31;47.56;102511.03;4944781;28;123292;-69
2021/03/28 02:08:14;;;;;;;11.05;3.38;;;;;;;10.29;47.61;102518.97;4918610;28;113559;-70
2021/03/28 02:11:05;;;;;;;9.45;3.20;;;;;;;10.26;47.29;102513.72;4916236;28;113976;-70
2021/03/28 02:14:08;;;;;;;12.07;3.20;;;;;;;10.24;47.51;102510.22;4940766;28;124519;-70
2021/03/28 02:16:51;;;;;;;10.55;3.60;;;;;;;10.22;47.41;102501.44;4942686;28;124696;-70
2021/03/28 02:19:20;;;;;;;11.00;3.40;;;;;;;10.22;47.84;102509.38;4948242;28;114824;-70
2021/03/28 02:22:12;;;;;;;10.07;3.65;;;;;;;10.20;47.75;102513.81;4917207;28;113153;-70
2021/03/28 02:25:08;;;;;;;22.05;3.97;;;;;;;10.18;47.62;102504.19;4890200;28;123815;-70
2021/03/28 02:28:04;;;;;;;12.65;3.40;;;;;;;10.16;47.96;102501.53;4943796;28;124366;-69
2021/03/28 02:30:54;;;;;;;17.25;3.83;;;;;;;10.16;48.14;102517.44;4945879;28;115474;-69
2021/03/28 02:33:43;;;;;;;11.10;3.40;;;;;;;10.15;48.07;102515.66;4908154;28;112890;-71
2021/03/28 02:36:24;;;;;;;15.95;3.85;;;;;;;10.15;48.16;102515.66;4938534;28;124836;-69
2021/03/28 02:39:24;;;;;;;13.77;3.40;;;;;;;10.13;48.04;102517.47;4949599;28;123700;-69
2021/03/28 02:42:02;;;;;;;10.70;3.25;;;;;;;10.12;48.03;102510.44;4922442;28;113330;-69
2021/03/28 02:44:48;;;;;;;16.88;3.92;;;;;;;10.07;48.32;102507.84;4931684;28;115116;-71
2021/03/28 02:47:41;;;;;;;13.02;3.30;;;;;;;10.07;48.29;102512.28;4926843;28;122585;-71
2021/03/28 02:50:34;;;;;;;13.80;3.53;;;;;;;10.05;48.39;102519.38;4937163;28;125957;-71
2021/03/28 02:53:20;;;;;;;14.27;3.47;;;;;;;10.03;48.43;102510.59;4924908;28;113732;-71
2021/03/28 02:56:04;;;;;;;15.18;3.47;;;;;;;10.02;48.55;102508.81;4942320;28;114358;-71
2021/03/28 02:58:40;;;;;;;12.00;3.67;;;;;;;10.01;48.74;102507.97;4921748;28;123156;-71
2021/03/28 03:01:29;;;;;;;11.18;3.28;;;;;;;10.01;48.77;102501.81;4936571;28;123898;-71
2021/03/28 03:04:24;;;;;;;13.95;3.70;;;;;;;9.98;48.71;102501.84;4938184;28;115122;-71
2021/03/28 03:07:11;;;;;;;13.88;3.67;;;;;;;9.98;48.96;102501.84;4937157;28;113936;-71
2021/03/28 03:09:56;;;;;;;13.05;3.80;;;;;;;9.99;48.84;102506.25;4895689;28;123569;-70
2021/03/28 03:12:35;;;;;;;13.93;4.03;;;;;;;9.98;49.06;102493.91;4913852;28;122734;-70
2021/03/28 03:15:39;;;;;;;13.27;3.90;;;;;;;9.97;48.78;102484.22;4923618;28;113109;-70
2021/03/28 03:18:43;;;;;;;11.88;3.45;;;;;;;9.96;48.97;102488.63;4930274;28;113836;-70
2021/03/28 03:21:16;;;;;;;18.23;3.92;;;;;;;9.97;49.03;102492.16;4928318;28;124963;-70
2021/03/28 03:24:05;;;;;;;12.18;3.40;;;;;;;9.94;49.19;102501.00;4929329;28;124552;-70
2021/03/28 03:27:10;;;;;;;14.45;4.32;;;;;;;9.94;49.24;102507.19;4929990;28;115981;-70
2021/03/28 03:30:14;;;;;;;16.42;3.63;;;;;;;9.91;49.38;102507.25;4915356;28;114175;-70
2021/03/28 03:33:02;;;;;;;13.13;3.67;;;;;;;9.90;49.27;102505.47;4930502;28;124215;-69
2021/03/28 03:35:46;;;;;;;14.90;3.88;;;;;;;9.88;49.50;102506.41;4931096;28;123645;-69
2021/03/28 03:38:31;;;;;;;15.02;3.47;;;;;;;9.90;49.43;102500.19;4913732;28;114585;-71
2021/03/28 03:41:19;;;;;;;13.00;3.30;;;;;;;9.93;49.87;102505.44;4933054;28;114138;-71
2021/03/28 03:44:17;;;;;;;9.68;3.30;;;;;;;9.94;49.73;102507.19;4928215;28;124003;-71
2021/03/28 03:47:11;;;;;;;11.18;3.38;;;;;;;9.96;49.76;102508.94;4929911;28;124252;-70
2021/03/28 03:50:05;;;;;;;13.65;3.40;;;;;;;9.96;49.77;102506.28;4930619;28;114360;-69
2021/03/28 03:52:52;;;;;;;11.43;3.58;;;;;;;9.98;49.86;102501.84;4931660;28;115010;-71
2021/03/28 03:55:33;;;;;;;13.02;3.35;;;;;;;9.99;50.13;102498.31;4912545;28;123113;-70
2021/03/28 03:58:17;;;;;;;15.73;3.50;;;;;;;9.99;49.77;102496.53;4915691;28;122845;-71
2021/03/28 04:01:15;;;;;;;13.35;3.40;;;;;;;10.00;49.99;102505.34;4917908;28;113667;-70
2021/03/28 04:03:42;;;;;;;9.13;3.15;;;;;;;10.01;49.82;102501.81;4917509;28;114191;-71
2021/03/28 04:06:39;;;;;;;13.15;3.22;;;;;;;10.01;49.80;102512.38;4920914;28;123630;-70
2021/03/28 04:09:16;;;;;;;11.10;3.55;;;;;;;10.04;50.07;102509.66;4918539;28;125625;-71
2021/03/28 04:11:55;;;;;;;12.13;3.05;;;;;;;10.06;50.10;102505.25;4928439;28;115240;-70
2021/03/28 04:14:34;;;;;;;10.50;3.30;;;;;;;10.09;50.31;102505.19;4935848;28;114592;-69
2021/03/28 04:17:31;;;;;;;9.45;3.00;;;;;;;10.12;50.03;102510.44;4908204;28;123736;-71
2021/03/28 04:20:13;;;;;;;13.80;3.55;;;;;;;10.14;50.16;102504.22;4928081;28;122715;-71
2021/03/28 04:23:04;;;;;;;12.75;3.00;;;;;;;10.16;50.13;102512.13;4920762;28;114264;-71
2021/03/28 04:25:55;;;;;;;13.07;3.13;;;;;;;10.19;49.92;102521.78;4926458;28;114959;-69
2021/03/28 04:28:38;;;;;;;10.48;3.17;;;;;;;10.21;50.26;102510.28;4906152;28;124414;-71
2021/03/28 04:31:20;;;;;;;13.60;3.05;;;;;;;10.24;50.17;102512.88;4929393;28;124453;-71
2021/03/28 04:33:58;;;;;;;9.18;2.95;;;;;;;10.26;50.31;102519.00;4935768;28;114117;-71
2021/03/28 04:36:36;;;;;;;10.52;3.08;;;;;;;10.28;50.39;102511.94;4927287;28;114716;-71
2021/03/28 04:39:18;;;;;;;11.05;3.13;;;;;;;10.31;50.20;102506.63;4911971;28;123526;-71
2021/03/28 04:42:10;;;;;;;10.57;3.38;;;;;;;10.33;50.47;102509.25;4896950;28;123844;-71
2021/03/28 04:45:02;;;;;;;9.80;2.83;;;;;;;10.34;50.54;102505.72;4924233;28;114322;-71
2021/03/28 04:48:08;;;;;;;9.05;2.90;;;;;;;10.37;50.38;102504.75;4935579;28;113912;-71
2021/03/28 04:50:49;;;;;;;12.98;3.25;;;;;;;10.41;50.26;102511.75;4891609;28;123313;-71
2021/03/28 04:54:04;;;;;;;13.90;3.17;;;;;;;10.43;50.50;102504.66;4919460;28;123295;-71
2021/03/28 04:56:37;;;;;;;10.48;2.78;;;;;;;10.47;50.34;102501.03;4920732;28;112750;-71
2021/03/28 04:59:09;;;;;;;11.23;2.92;;;;;;;10.48;50.39;102492.19;4919908;28;113524;-71
2021/03/28 05:02:04;;;;;;;12.43;2.78;;;;;;;10.51;50.64;102497.47;4912053;28;124565;-71
2021/03/28 05:04:51;;;;;;;9.27;2.58;;;;;;;10.54;50.42;102497.38;4929923;28;123814;-71
2021/03/28 05:07:44;;;;;;;11.65;2.83;;;;;;;10.57;50.53;102486.75;4893329;28;112841;-71
2021/03/28 05:10:35;;;;;;;8.73;3.13;;;;;;;10.62;50.27;102474.25;4911810;28;113005;-69
2021/03/28 05:13:37;;;;;;;12.73;3.25;;;;;;;10.64;50.46;102472.47;4942114;28;125137;-69
2021/03/28 05:16:41;;;;;;;13.43;3.03;;;;;;;10.68;50.31;102468.88;4940273;28;124033;-68
2021/03/28 05:19:33;;;;;;;8.75;3.15;;;;;;;10.70;50.21;102477.66;4929868;28;114950;-71
2021/03/28 05:22:30;;;;;;;12.15;2.97;;;;;;;10.70;50.22;102472.34;4946424;28;115077;-71
2021/03/28 05:25:14;;;;;;;9.95;3.22;;;;;;;10.75;50.39;102484.63;4943450;28;123318;-69
2021/03/28 05:27:55;;;;;;;10.40;2.67;;;;;;;10.77;50.38;102474.88;4922675;28;123178;-71
2021/03/28 05:30:52;;;;;;;13.18;2.83;;;;;;;10.80;50.41;102477.47;4938908;28;114222;-71
2021/03/28 05:33:49;;;;;;;8.20;2.70;;;;;;;10.83;50.29;102488.00;4943158;28;114009;-71
2021/03/28 05:36:39;;;;;;;9.77;2.70;;;;;;;10.84;50.60;102495.06;4944140;28;124209;-71
2021/03/28 05:39:34;;;;;;;9.90;2.53;;;;;;;10.86;50.38;102490.59;4947719;28;123762;-71
2021/03/28 05:42:15;;;;;;;10.67;3.00;;;;;;;10.87;50.17;102495.00;4928745;28;114230;-71
2021/03/28 05:45:11;;;;;;;11.80;2.70;;;;;;;10.89;50.14;102487.91;4942191;28;114505;-71
2021/03/28 05:47:44;;;;;;;10.27;2.78;;;;;;;10.91;50.21;102486.09;4943279;28;124084;-71
2021/03/28 05:50:25;;;;;;;11.25;2.85;;;;;;;10.93;50.38;102489.59;4943768;28;124609;-71
2021/03/28 05:53:15;;;;;;;10.35;2.70;;;;;;;10.93;50.28;102484.28;4926382;28;114005;-71
2021/03/28 05:56:12;;;;;;;10.23;2.40;;;;;;;10.95;50.33;102476.31;4945652;28;113448;-71
2021/03/28 05:58:52;;;;;;;7.47;2.70;;;;;;;10.95;50.03;102477.16;4904559;28;123359;-71
2021/03/28 06:01:18;;;;;;;7.07;2.40;;;;;;;10.96;50.28;102476.25;4915777;28;124630;-71
2021/03/28 06:04:07;;;;;;;9.68;3.30;;;;;;;10.97;50.23;102475.34;4913649;28;114420;-71
2021/03/28 06:07:08;;;;;;;12.73;2.85;;;;;;;10.99;50.44;102468.25;4914016;28;113517;-71
2021/03/28 06:10:06;;;;;;;9.50;2.40;;;;;;;11.03;50.50;102463.75;4915567;28;123929;-71
2021/03/28 06:12:42;;;;;;;9.90;2.53;;;;;;;11.05;50.51;102468.09;4923075;28;123632;-70
2021/03/28 06:15:27;;;;;;;;;;;;;;;11.08;50.16;102483.09;4943647;28;115551;-70
2021/03/28 06:18:31;;;;;;;8.95;2.67;;;;;;;11.12;50.18;102489.22;4941064;28;114856;-70
2021/03/28 06:21:35;;;;;;;12.48;2.63;;;;;;;11.14;50.40;102482.09;4931187;28;124443;-70
2021/03/28 06:24:39;;;;;;;7.38;2.42;;;;;;;11.15;50.24;102489.13;4942296;28;124177;-70
2021/03/28 06:27:21;;;;;;;7.80;2.58;;;;;;;11.17;50.43;102497.91;4933824;28;114596;-71
2021/03/28 06:30:27;;;;;;;7.65;2.60;;;;;;;11.21;50.64;102494.31;4905077;28;114330;-70
2021/03/28 06:33:12;;;;;;;9.25;2.63;;;;;;;11.27;50.47;102486.22;4885260;28;123879;-70
2021/03/28 06:36:07;;;;;;;6.75;2.63;;;;;;;11.31;50.30;102485.25;4947998;28;123918;-70
2021/03/28 06:39:15;;;;;;;9.18;2.63;;;;;;;11.37;50.57;102485.09;4920922;28;113489;-70
2021/03/28 06:42:15;;;;;;;6.43;2.60;;;;;;;11.43;50.46;102485.00;4924796;28;113946;-70
2021/03/28 06:44:50;;;;;;;6.63;2.60;;;;;;;11.48;50.63;102483.09;4945207;28;124691;-70
2021/03/28 06:47:51;;;;;;;9.20;2.63;;;;;;;11.52;50.73;102498.97;4935349;28;124451;-70
2021/03/28 06:50:34;;;;;;;9.07;2.92;;;;;;;11.58;50.49;102498.81;4924623;28;113921;-70
2021/03/28 06:53:30;;;;;;;9.90;2.67;;;;;;;11.60;50.40;102491.69;4934050;28;113665;-70
2021/03/28 06:56:33;;;;;;;8.48;2.67;;;;;;;11.63;50.64;102491.63;4931942;28;124189;-70
2021/03/28 06:59:33;;;;;;;11.32;2.90;;;;;;;11.70;50.52;102490.56;4936817;28;124254;-70
2021/03/28 07:02:05;;;;;;;6.45;2.58;;;;;;;11.78;50.73;102495.72;4914107;28;113552;-70
2021/03/28 07:05:06;;;;;;;7.53;3.00;;;;;;;11.83;50.49;102489.38;4944200;28;114275;-70
2021/03/28 07:07:54;;;;;;;12.98;3.00;;;;;;;11.91;50.64;102496.31;4935447;28;124284;-70
2021/03/28 07:10:39;;;;;;;9.13;2.97;;;;;;;11.97;50.69;102496.16;4939768;28;124360;-70
2021/03/28 07:13:31;;;;;;;11.20;3.03;;;;;;;12.04;50.80;102498.63;4923776;28;115175;-70
2021/03/28 07:16:16;;;;;;;7.43;2.88;;;;;;;12.13;50.42;102502.84;4895486;28;114549;-70
2021/03/28 07:19:13;;;;;;;8.02;2.88;;;;;;;12.19;50.48;102502.69;4915018;28;122058;-70
2021/03/28 07:21:42;;;;;;;6.43;2.60;;;;;;;12.26;50.49;102506.94;4931127;28;124593;-70
2021/03/28 07:24:37;;;;;;;10.25;3.00;;;;;;;12.32;50.50;102502.38;4940911;28;114596;-70
2021/03/28 07:27:25;;;;;;;10.27;3.00;;;;;;;12.41;50.48;102505.69;4913557;28;113748;-70
2021/03/28 07:30:13;;;;;;;10.00;3.10;;;;;;;12.50;50.41;102495.72;4912619;28;124070;-70
2021/03/28 07:33:09;;;;;;;13.07;3.35;;;;;;;12.59;50.36;102511.41;4919658;28;123200;-70
2021/03/28 07:36:13;;;;;;;9.50;3.10;;;;;;;12.65;50.32;102501.47;4914024;28;113747;-69
2021/03/28 07:39:10;;;;;;;9.52;3.20;;;;;;;12.75;50.51;102511.88;4945703;28;114349;-69
2021/03/28 07:42:23;;;;;;;10.00;2.95;;;;;;;12.89;50.30;102507.06;4940954;28;124098;-69
2021/03/28 07:45:25;;;;;;;9.73;2.80;;;;;;;13.07;50.26;102507.44;4924506;28;123196;-69
2021/03/28 07:48:11;;;;;;;11.32;3.33;;;;;;;13.22;50.63;102501.66;4944823;28;114255;-70
2021/03/28 07:50:57;;;;;;;10.48;3.42;;;;;;;13.42;50.54;102504.63;4946489;28;113878;-69
2021/03/28 07:54:01;;;;;;;11.35;3.15;;;;;;;13.61;50.27;102509.41;4907641;28;123686;-70
2021/03/28 07:57:26;;;;;;;9.77;3.10;;;;;;;13.80;50.03;102515.88;4902265;28;121855;-69
2021/03/28 08:00:23;;;;;;;10.95;3.30;;;;;;;14.03;49.85;102506.28;4851159;28;113961;-70
2021/03/28 08:03:08;;;;;;;8.30;3.20;;;;;;;14.20;49.67;102513.72;4931202;28;113242;-70
2021/03/28 08:05:57;;;;;;;10.60;2.97;;;;;;;14.33;49.23;102503.50;4931284;28;124282;-71
2021/03/28 08:08:47;;;;;;;12.45;3.10;;;;;;;14.43;49.22;102504.97;4931411;28;124433;-71
2021/03/28 08:11:48;;;;;;;9.40;2.95;;;;;;;14.52;48.87;102499.31;4929580;28;115925;-70
2021/03/28 08:14:41;;;;;;;10.05;3.25;;;;;;;14.59;48.50;102506.16;4931743;28;114951;-71
2021/03/28 08:17:22;;;;;;;12.25;3.30;;;;;;;14.66;48.60;102505.97;4923012;28;123704;-71
2021/03/28 08:19:57;;;;;;;12.32;3.03;;;;;;;14.73;48.37;102496.81;4912456;28;124188;-70
2021/03/28 08:22:43;;;;;;;10.57;3.42;;;;;;;14.79;48.14;102500.13;4907302;28;113468;-71
2021/03/28 08:25:15;;;;;;;9.95;3.55;;;;;;;14.84;47.98;102494.63;4929121;28;114062;-70
2021/03/28 08:27:59;;;;;;;6.30;2.78;;;;;;;14.88;47.90;102501.63;4952127;28;124778;-72
2021/03/28 08:30:42;;;;;;;8.52;3.10;;;;;;;14.94;48.00;102498.72;4950399;28;124517;-72
2021/03/28 08:33:37;;;;;;;11.80;3.60;;;;;;;15.03;48.17;102504.63;4921871;28;114387;-71
2021/03/28 08:36:18;;;;;;;10.93;3.10;;;;;;;15.12;47.93;102501.63;4917491;28;114214;-71
2021/03/28 08:39:10;;;;;;;14.63;3.25;;;;;;;15.19;47.98;102500.47;4931372;28;124118;-71
2021/03/28 08:41:49;;;;;;;13.98;3.50;;;;;;;15.30;47.74;102506.25;4932968;28;123669;-72
2021/03/28 08:44:45;;;;;;;10.38;3.20;;;;;;;15.38;47.48;102498.81;4914011;28;114328;-72
2021/03/28 08:47:44;;;;;;;9.68;3.30;;;;;;;15.44;47.24;102494.19;4912146;28;114201;-72
2021/03/28 08:50:20;;;;;;;11.43;3.13;;;;;;;15.47;46.90;102494.94;4930983;28;123964;-72
2021/03/28 08:52:50;;;;;;;11.43;3.08;;;;;;;15.48;46.87;102495.78;4913062;28;122783;-72
2021/03/28 08:55:29;;;;;;;10.68;3.42;;;;;;;15.47;46.51;102491.41;4930687;28;113278;-72
2021/03/28 08:58:04;;;;;;;9.90;3.08;;;;;;;15.48;46.63;102490.44;4913611;28;117569;-72
2021/03/28 09:01:02;;;;;;;15.82;3.13;;;;;;;15.49;46.44;102486.88;4913639;28;122308;-72
2021/03/28 09:03:56;;;;;;;12.85;3.00;;;;;;;15.52;46.56;102489.38;4921483;28;124914;-72
2021/03/28 09:06:55;;;;;;;12.73;3.33;;;;;;;15.54;46.36;102495.56;4912264;28;115286;-72
2021/03/28 09:09:21;;;;;;;9.07;3.17;;;;;;;15.60;46.37;102489.97;4913678;28;114521;-72
2021/03/28 09:12:19;;;;;;;8.68;2.50;;;;;;;15.65;46.26;102488.00;4930078;28;123123;-71
2021/03/28 09:15:09;;;;;;;10.23;2.78;;;;;;;15.72;46.01;102478.78;4930136;28;124649;-72
2021/03/28 09:17:53;;;;;;;12.82;3.03;;;;;;;15.80;45.58;102474.97;4912997;28;113653;-72
2021/03/28 09:20:54;;;;;;;11.52;2.83;;;;;;;15.79;45.69;102470.56;4914124;28;114992;-73
2021/03/28 09:23:27;;;;;;;9.93;2.53;;;;;;;15.86;45.78;102469.38;4917729;28;124033;-72
2021/03/28 09:26:13;;;;;;;10.88;3.03;;;;;;;15.93;45.56;102470.84;4912686;28;123365;-72
2021/03/28 09:28:51;;;;;;;11.93;2.63;;;;;;;16.02;45.52;102481.16;4913510;28;113785;-73
2021/03/28 09:31:59;;;;;;;11.43;3.25;;;;;;;16.05;45.48;102473.03;4933040;28;113796;-70
2021/03/28 09:34:38;;;;;;;10.18;3.10;;;;;;;16.14;45.27;102469.97;4871976;28;123875;-70
2021/03/28 09:37:49;;;;;;;9.43;2.53;;;;;;;16.22;45.30;102471.44;4915492;28;124001;-70
2021/03/28 09:40:34;;;;;;;11.32;3.30;;;;;;;16.29;45.08;102486.28;4919951;28;114125;-71
2021/03/28 09:43:14;;;;;;;10.57;2.70;;;;;;;16.33;44.76;102475.41;4932044;28;113847;-71
2021/03/28 09:45:50;;;;;;;10.68;2.50;;;;;;;16.37;44.30;102481.50;4914895;28;123471;-71
2021/03/28 09:48:50;;;;;;;9.63;2.60;;;;;;;16.42;44.03;102474.09;4916532;28;122838;-71
2021/03/28 09:51:45;;;;;;;11.02;2.85;;;;;;;16.46;43.68;102486.44;4913536;28;113081;-70
2021/03/28 09:54:22;;;;;;;12.27;2.75;;;;;;;16.48;43.45;102489.03;4934286;28;114298;-71
2021/03/28 09:57:05;;;;;;;8.38;2.55;;;;;;;16.48;43.20;102486.34;4914168;28;124153;-71
2021/03/28 09:59:41;;;;;;;8.77;2.50;;;;;;;16.53;43.29;102487.88;4915519;28;123435;-71
2021/03/28 10:02:39;;;;;;;9.85;2.53;;;;;;;16.58;43.15;102478.81;4926298;28;116130;-71
2021/03/28 10:05:31;;;;;;;9.40;2.60;;;;;;;16.60;42.53;102493.00;4912652;28;114167;-71
2021/03/28 10:08:08;;;;;;;10.88;2.63;;;;;;;16.61;42.34;102489.34;4914633;28;124031;-71
2021/03/28 10:10:59;;;;;;;9.25;2.88;;;;;;;16.66;42.35;102503.41;4937245;28;123970;-70
2021/03/28 10:13:29;;;;;;;7.18;2.30;;;;;;;16.74;42.43;102485.19;4930177;28;113504;-70
2021/03/28 10:16:30;;;;;;;5.97;1.75;;;;;;;16.84;42.34;102497.28;4916732;28;112087;-71
2021/03/28 10:19:11;;;;;;;8.52;2.00;;;;;;;16.93;41.75;102501.31;4915535;28;123851;-71
2021/03/28 10:22:06;;;;;;;8.18;2.15;;;;;;;17.03;41.47;102496.44;4939327;28;124232;-71
2021/03/28 10:24:57;;;;;;;5.90;1.77;;;;;;;17.10;40.82;102497.88;4931216;28;112161;-71
2021/03/28 10:27:47;;;;;;;5.88;1.80;;;;;;;17.13;39.95;102487.91;4928437;28;114018;-71
2021/03/28 10:30:35;;;;;;;7.65;2.28;;;;;;;17.14;39.76;102491.47;4924196;28;123616;-71
2021/03/28 10:33:21;;;;;;;6.45;1.77;;;;;;;17.15;39.79;102501.22;4949985;28;123798;-71
2021/03/28 10:35:57;;;;;;;6.43;2.08;;;;;;;17.21;39.47;102495.56;4915776;28;114548;-71
2021/03/28 10:38:58;;;;;;;9.10;1.88;;;;;;;17.26;38.95;102488.19;4934201;28;113472;-71
2021/03/28 10:41:29;;;;;;;7.55;1.70;;;;;;;17.29;38.76;102482.72;4915241;28;123795;-71
2021/03/28 10:44:14;;;;;;;7.72;1.88;;;;;;;17.32;38.60;102493.25;4933305;28;123825;-70
2021/03/28 10:47:12;;;;;;;7.57;1.52;;;;;;;17.35;38.46;102496.72;4930385;28;114251;-71
2021/03/28 10:49:57;;;;;;;5.82;1.80;;;;;;;17.38;38.75;102481.38;4930977;28;115036;-70
2021/03/28 10:52:49;;;;;;;8.30;2.00;;;;;;;17.45;38.28;102481.97;4916871;28;123364;-71
2021/03/28 10:55:26;;;;;;;7.85;2.28;;;;;;;17.50;38.19;102493.34;4914952;28;124362;-71
2021/03/28 10:58:37;;;;;;;6.13;1.73;;;;;;;17.51;38.27;102498.59;4938408;28;115923;-71
2021/03/28 11:01:29;;;;;;;5.55;1.90;;;;;;;17.53;38.28;102490.50;4934457;28;114628;-71
2021/03/28 11:04:14;;;;;;;8.02;2.03;;;;;;;17.52;38.12;102488.78;4924092;28;123982;-70
2021/03/28 11:06:52;;;;;;;6.80;1.90;;;;;;;17.49;37.83;102488.91;4931702;28;123624;-71
2021/03/28 11:09:43;;;;;;;7.47;2.10;;;;;;;17.47;37.96;102485.44;4945870;28;115021;-71
2021/03/28 11:12:47;;;;;;;6.03;1.80;;;;;;;17.45;38.40;102503.41;4926717;28;113407;-71
2021/03/28 11:15:42;;;;;;;7.38;2.20;;;;;;;17.46;38.39;102505.13;4942568;28;124757;-71
2021/03/28 11:18:40;;;;;;;6.75;2.20;;;;;;;17.46;38.26;102505.13;4941569;28;124039;-70
2021/03/28 11:21:36;;;;;;;7.13;2.10;;;;;;;17.44;38.41;102507.00;4944920;28;114244;-71
2021/03/28 11:24:23;;;;;;;6.30;2.33;;;;;;;17.42;38.17;102503.53;4944011;28;114087;-70
2021/03/28 11:27:18;;;;;;;8.52;2.38;;;;;;;17.43;38.49;102505.28;4915647;28;124324;-71
2021/03/28 11:29:55;;;;;;;5.93;2.33;;;;;;;17.42;38.21;102515.16;4928469;28;124587;-71
2021/03/28 11:32:53;;;;;;;8.43;2.42;;;;;;;17.43;38.55;102510.66;4932774;28;115361;-71
2021/03/28 11:35:44;;;;;;;8.35;2.17;;;;;;;17.44;38.51;102517.72;4929255;28;114404;-70
2021/03/28 11:38:17;;;;;;;8.80;2.10;;;;;;;17.44;38.42;102521.31;4917336;28;124405;-71
2021/03/28 11:40:51;;;;;;;10.15;2.10;;;;;;;17.46;38.33;102513.16;4915328;28;123760;-71
2021/03/28 11:43:30;;;;;;;7.88;2.40;;;;;;;17.43;38.33;102511.50;4932735;28;114405;-70
2021/03/28 11:46:05;;;;;;;6.47;1.85;;;;;;;17.42;38.25;102519.63;4904956;28;113183;-71
2021/03/28 11:48:54;;;;;;;8.02;2.10;;;;;;;17.39;38.29;102523.31;4926704;28;124150;-71
2021/03/28 11:51:24;;;;;;;7.15;1.90;;;;;;;17.39;38.25;102511.75;4941807;28;123729;-71
2021/03/28 11:54:04;;;;;;;7.55;2.00;;;;;;;17.35;38.36;102502.97;4896009;28;114338;-71
2021/03/28 11:56:49;;;;;;;9.50;2.45;;;;;;;17.32;38.43;102506.66;4919193;28;114626;-71
2021/03/28 11:59:28;;;;;;;8.53;2.07;;;;;;;17.31;38.51;102507.59;4920577;28;123043;-70
2021/03/28 12:01:54;;;;;;;12.98;2.38;;;;;;;17.29;38.46;102493.44;4919877;28;123424;-70
2021/03/28 12:04:35;;;;;;;11.82;2.20;;;;;;;17.25;38.09;102507.00;4941123;28;114533;-69
2021/03/28 12:07:26;;;;;;;6.15;2.20;;;;;;;17.21;38.38;102495.56;4918534;28;113920;-70
2021/03/28 12:09:59;;;;;;;6.82;2.00;;;;;;;17.18;38.61;102506.44;4939400;28;124592;-69
2021/03/28 12:12:37;;;;;;;8.88;2.28;;;;;;;17.17;38.48;102504.69;4945150;28;123844;-69
2021/03/28 12:15:41;;;;;;;9.45;2.47;;;;;;;17.16;38.75;102510.13;4942298;28;114224;-69
2021/03/28 12:18:26;;;;;;;9.02;2.35;;;;;;;17.13;38.64;102503.09;4944721;28;113980;-69
2021/03/28 12:20:59;;;;;;;7.88;2.10;;;;;;;17.11;39.10;102515.69;4942647;28;123707;-69
2021/03/28 12:23:33;;;;;;;8.77;2.20;;;;;;;17.11;38.78;102515.69;4941858;28;123828;-69
2021/03/28 12:26:21;;;;;;;8.57;2.30;;;;;;;17.09;39.16;102513.09;4913124;28;113811;-69
2021/03/28 12:28:51;;;;;;;8.43;2.22;;;;;;;17.08;38.95;102511.38;4919408;28;113104;-69
2021/03/28 12:31:27;;;;;;;7.80;2.03;;;;;;;17.08;39.18;102502.44;4942103;28;123959;-69
2021/03/28 12:34:05;;;;;;;12.68;2.63;;;;;;;17.12;39.18;102506.72;4919746;28;123867;-71
2021/03/28 12:36:56;;;;;;;10.30;2.60;;;;;;;17.14;39.30;102502.19;4916454;28;114065;-70
2021/03/28 12:39:34;;;;;;;8.35;2.30;;;;;;;17.12;39.30;102502.25;4942740;28;114562;-70
2021/03/28 12:42:01;;;;;;;8.95;2.45;;;;;;;17.14;39.08;102499.50;4910504;28;123025;-70